sensor_id;sensor_type;location;lat;lon;timestamp;temperature;humidity
23102;DHT22;11720;51.214;22.574;2023-04-30T00:00:12;6.90;99.90
23102;DHT22;11720;51.214;22.574;2023-04-30T00:02:38;6.80;99.90
23102;DHT22;11720;51.214;22.574;2023-04-30T00:05:04;6.80;99.90
23102;DHT22;11720;51.214;22.574;2023-04-30T00:07:30;6.80;99.90
23102;DHT22;11720;51.214;22.574;2023-04-30T00:09:56;6.80;99.90
23102;DHT22;11720;51.214;22.574;2023-04-30T00:12:22;6.80;99.90
23102;DHT22;11720;51.214;22.574;2023-04-30T00:14:48;6.70;99.90
23102;DHT22;11720;51.214;22.574;2023-04-30T00:17:14;6.70;99.90
23102;DHT22;11720;51.214;22.574;2023-04-30T00:19:40;6.70;99.90
23102;DHT22;11720;51.214;22.574;2023-04-30T00:22:06;6.70;99.90
23102;DHT22;11720;51.214;22.574;2023-04-30T00:24:32;6.70;99.90
23102;DHT22;11720;51.214;22.574;2023-04-30T00:26:58;6.70;99.90
23102;DHT22;11720;51.214;22.574;2023-04-30T00:29:23;5.10;99.90
23102;DHT22;11720;51.214;22.574;2023-04-30T00:31:49;6.80;99.90
23102;DHT22;11720;51.214;22.574;2023-04-30T00:34:15;6.80;99.90
23102;DHT22;11720;51.214;22.574;2023-04-30T00:36:40;6.80;99.90
23102;DHT22;11720;51.214;22.574;2023-04-30T00:41:34;6.90;99.90
23102;DHT22;11720;51.214;22.574;2023-04-30T00:43:59;6.90;99.90
23102;DHT22;11720;51.214;22.574;2023-04-30T00:46:27;6.90;99.90
23102;DHT22;11720;51.214;22.574;2023-04-30T00:48:53;7.00;99.90
23102;DHT22;11720;51.214;22.574;2023-04-30T00:51:19;6.70;99.90
23102;DHT22;11720;51.214;22.574;2023-04-30T00:53:45;7.00;99.90
23102;DHT22;11720;51.214;22.574;2023-04-30T00:56:12;7.00;99.90
23102;DHT22;11720;51.214;22.574;2023-04-30T00:58:40;7.00;99.90
23102;DHT22;11720;51.214;22.574;2023-04-30T01:01:06;7.00;99.90
23102;DHT22;11720;51.214;22.574;2023-04-30T01:03:32;7.00;99.90
23102;DHT22;11720;51.214;22.574;2023-04-30T01:06:00;7.30;99.90
23102;DHT22;11720;51.214;22.574;2023-04-30T01:08:26;7.10;99.90
23102;DHT22;11720;51.214;22.574;2023-04-30T01:14:17;7.10;99.90
23102;DHT22;11720;51.214;22.574;2023-04-30T01:16:50;7.10;99.90
23102;DHT22;11720;51.214;22.574;2023-04-30T01:19:41;7.10;99.90
23102;DHT22;11720;51.214;22.574;2023-04-30T01:22:11;7.10;99.90
23102;DHT22;11720;51.214;22.574;2023-04-30T01:30:21;7.20;99.90
23102;DHT22;11720;51.214;22.574;2023-04-30T01:32:48;7.20;99.90
23102;DHT22;11720;51.214;22.574;2023-04-30T01:35:13;7.20;99.90
23102;DHT22;11720;51.214;22.574;2023-04-30T01:40:40;7.30;99.90
23102;DHT22;11720;51.214;22.574;2023-04-30T01:51:04;7.40;99.90
23102;DHT22;11720;51.214;22.574;2023-04-30T01:53:40;7.40;99.90
23102;DHT22;11720;51.214;22.574;2023-04-30T01:56:11;7.50;99.90
23102;DHT22;11720;51.214;22.574;2023-04-30T01:58:37;7.50;99.90
23102;DHT22;11720;51.214;22.574;2023-04-30T02:01:04;7.50;99.90
23102;DHT22;11720;51.214;22.574;2023-04-30T02:03:31;7.60;99.90
23102;DHT22;11720;51.214;22.574;2023-04-30T02:05:57;7.60;99.90
23102;DHT22;11720;51.214;22.574;2023-04-30T02:08:23;7.60;99.90
23102;DHT22;11720;51.214;22.574;2023-04-30T02:10:49;7.70;99.90
23102;DHT22;11720;51.214;22.574;2023-04-30T02:13:15;7.70;99.90
23102;DHT22;11720;51.214;22.574;2023-04-30T02:15:41;7.70;99.90
23102;DHT22;11720;51.214;22.574;2023-04-30T02:18:07;7.70;99.90
23102;DHT22;11720;51.214;22.574;2023-04-30T02:20:35;7.70;99.90
23102;DHT22;11720;51.214;22.574;2023-04-30T02:23:01;7.70;99.90
23102;DHT22;11720;51.214;22.574;2023-04-30T02:25:27;7.80;99.90
23102;DHT22;11720;51.214;22.574;2023-04-30T02:27:52;7.80;99.90
23102;DHT22;11720;51.214;22.574;2023-04-30T02:30:18;7.80;99.90
23102;DHT22;11720;51.214;22.574;2023-04-30T02:32:45;7.80;99.90
23102;DHT22;11720;51.214;22.574;2023-04-30T02:35:10;7.80;99.90
23102;DHT22;11720;51.214;22.574;2023-04-30T02:37:36;7.80;99.90
23102;DHT22;11720;51.214;22.574;2023-04-30T02:40:02;7.80;99.90
23102;DHT22;11720;51.214;22.574;2023-04-30T02:42:27;7.90;99.90
23102;DHT22;11720;51.214;22.574;2023-04-30T02:44:53;7.90;99.90
23102;DHT22;11720;51.214;22.574;2023-04-30T02:47:19;7.90;99.90
23102;DHT22;11720;51.214;22.574;2023-04-30T02:49:44;8.00;99.90
23102;DHT22;11720;51.214;22.574;2023-04-30T02:52:10;7.90;99.90
23102;DHT22;11720;51.214;22.574;2023-04-30T02:54:36;8.00;99.90
23102;DHT22;11720;51.214;22.574;2023-04-30T02:57:01;8.00;99.90
23102;DHT22;11720;51.214;22.574;2023-04-30T02:59:27;8.00;99.90
23102;DHT22;11720;51.214;22.574;2023-04-30T03:01:53;8.00;99.90
23102;DHT22;11720;51.214;22.574;2023-04-30T03:04:18;8.10;99.90
23102;DHT22;11720;51.214;22.574;2023-04-30T03:06:44;8.10;99.90
23102;DHT22;11720;51.214;22.574;2023-04-30T03:09:10;8.10;99.90
23102;DHT22;11720;51.214;22.574;2023-04-30T03:11:36;7.90;99.90
23102;DHT22;11720;51.214;22.574;2023-04-30T03:14:02;8.10;99.90
23102;DHT22;11720;51.214;22.574;2023-04-30T03:16:29;8.20;99.90
23102;DHT22;11720;51.214;22.574;2023-04-30T03:18:55;8.20;99.90
23102;DHT22;11720;51.214;22.574;2023-04-30T03:21:21;8.20;99.90
23102;DHT22;11720;51.214;22.574;2023-04-30T03:23:47;8.30;99.90
23102;DHT22;11720;51.214;22.574;2023-04-30T03:26:13;8.20;99.90
23102;DHT22;11720;51.214;22.574;2023-04-30T03:28:39;8.30;99.90
23102;DHT22;11720;51.214;22.574;2023-04-30T03:31:05;8.20;99.90
23102;DHT22;11720;51.214;22.574;2023-04-30T03:33:32;8.20;99.90
23102;DHT22;11720;51.214;22.574;2023-04-30T03:35:58;8.20;99.90
23102;DHT22;11720;51.214;22.574;2023-04-30T03:38:23;8.30;99.90
23102;DHT22;11720;51.214;22.574;2023-04-30T03:40:49;8.30;99.90
23102;DHT22;11720;51.214;22.574;2023-04-30T03:43:15;8.30;99.90
23102;DHT22;11720;51.214;22.574;2023-04-30T03:45:40;8.30;99.90
23102;DHT22;11720;51.214;22.574;2023-04-30T03:48:06;8.40;99.90
23102;DHT22;11720;51.214;22.574;2023-04-30T03:50:32;8.40;99.90
23102;DHT22;11720;51.214;22.574;2023-04-30T03:52:57;8.40;99.90
23102;DHT22;11720;51.214;22.574;2023-04-30T03:55:23;8.50;99.90
23102;DHT22;11720;51.214;22.574;2023-04-30T03:57:50;8.40;99.90
23102;DHT22;11720;51.214;22.574;2023-04-30T04:00:16;8.50;99.90
23102;DHT22;11720;51.214;22.574;2023-04-30T04:02:41;8.60;99.90
23102;DHT22;11720;51.214;22.574;2023-04-30T04:05:07;8.60;99.90
23102;DHT22;11720;51.214;22.574;2023-04-30T04:07:33;8.60;99.90
23102;DHT22;11720;51.214;22.574;2023-04-30T04:09:59;8.60;99.90
23102;DHT22;11720;51.214;22.574;2023-04-30T04:12:25;8.70;99.90
23102;DHT22;11720;51.214;22.574;2023-04-30T04:14:51;8.70;99.90
23102;DHT22;11720;51.214;22.574;2023-04-30T04:19:42;8.90;99.90
23102;DHT22;11720;51.214;22.574;2023-04-30T04:22:08;9.00;99.90
23102;DHT22;11720;51.214;22.574;2023-04-30T04:24:34;9.10;99.90
23102;DHT22;11720;51.214;22.574;2023-04-30T04:26:59;9.20;99.90
23102;DHT22;11720;51.214;22.574;2023-04-30T04:29:27;9.20;99.90
23102;DHT22;11720;51.214;22.574;2023-04-30T04:31:53;9.30;99.90
23102;DHT22;11720;51.214;22.574;2023-04-30T04:34:20;9.80;99.90
23102;DHT22;11720;51.214;22.574;2023-04-30T04:36:45;9.60;99.90
23102;DHT22;11720;51.214;22.574;2023-04-30T04:39:11;9.40;99.90
23102;DHT22;11720;51.214;22.574;2023-04-30T04:41:38;9.50;99.90
23102;DHT22;11720;51.214;22.574;2023-04-30T04:44:04;9.50;99.90
23102;DHT22;11720;51.214;22.574;2023-04-30T04:46:30;9.60;99.90
23102;DHT22;11720;51.214;22.574;2023-04-30T04:48:59;9.60;99.90
23102;DHT22;11720;51.214;22.574;2023-04-30T04:51:25;9.40;99.90
23102;DHT22;11720;51.214;22.574;2023-04-30T04:53:51;10.20;99.90
23102;DHT22;11720;51.214;22.574;2023-04-30T04:56:16;9.70;99.90
23102;DHT22;11720;51.214;22.574;2023-04-30T04:58:43;9.70;99.90
23102;DHT22;11720;51.214;22.574;2023-04-30T05:01:09;9.80;99.90
23102;DHT22;11720;51.214;22.574;2023-04-30T05:03:38;9.90;99.90
23102;DHT22;11720;51.214;22.574;2023-04-30T05:06:04;9.90;99.90
23102;DHT22;11720;51.214;22.574;2023-04-30T05:08:30;10.00;99.90
23102;DHT22;11720;51.214;22.574;2023-04-30T05:10:56;10.00;99.90
23102;DHT22;11720;51.214;22.574;2023-04-30T05:13:21;10.00;99.90
23102;DHT22;11720;51.214;22.574;2023-04-30T05:15:51;10.10;99.90
23102;DHT22;11720;51.214;22.574;2023-04-30T05:18:17;10.10;99.90
23102;DHT22;11720;51.214;22.574;2023-04-30T05:20:43;10.10;99.90
23102;DHT22;11720;51.214;22.574;2023-04-30T05:23:09;10.10;99.90
23102;DHT22;11720;51.214;22.574;2023-04-30T05:25:35;10.30;99.90
23102;DHT22;11720;51.214;22.574;2023-04-30T05:28:01;10.00;99.90
23102;DHT22;11720;51.214;22.574;2023-04-30T05:30:28;10.10;99.90
23102;DHT22;11720;51.214;22.574;2023-04-30T05:32:54;10.00;99.90
23102;DHT22;11720;51.214;22.574;2023-04-30T05:35:20;10.10;99.90
23102;DHT22;11720;51.214;22.574;2023-04-30T05:37:46;10.10;99.90
23102;DHT22;11720;51.214;22.574;2023-04-30T05:40:12;10.10;99.90
23102;DHT22;11720;51.214;22.574;2023-04-30T05:42:38;10.10;99.90
23102;DHT22;11720;51.214;22.574;2023-04-30T05:45:06;10.10;99.90
23102;DHT22;11720;51.214;22.574;2023-04-30T05:47:32;10.20;99.90
23102;DHT22;11720;51.214;22.574;2023-04-30T05:49:57;10.20;99.90
23102;DHT22;11720;51.214;22.574;2023-04-30T05:52:23;10.20;99.90
23102;DHT22;11720;51.214;22.574;2023-04-30T05:54:49;10.20;99.90
23102;DHT22;11720;51.214;22.574;2023-04-30T05:57:15;10.30;99.90
23102;DHT22;11720;51.214;22.574;2023-04-30T05:59:40;10.30;99.90
23102;DHT22;11720;51.214;22.574;2023-04-30T06:02:06;10.40;99.90
23102;DHT22;11720;51.214;22.574;2023-04-30T06:04:32;10.40;99.90
23102;DHT22;11720;51.214;22.574;2023-04-30T06:06:57;10.40;99.90
23102;DHT22;11720;51.214;22.574;2023-04-30T06:09:23;10.50;99.90
23102;DHT22;11720;51.214;22.574;2023-04-30T06:11:49;10.40;99.90
23102;DHT22;11720;51.214;22.574;2023-04-30T06:14:16;8.60;99.90
23102;DHT22;11720;51.214;22.574;2023-04-30T06:16:45;10.60;99.90
23102;DHT22;11720;51.214;22.574;2023-04-30T06:19:11;10.70;99.90
23102;DHT22;11720;51.214;22.574;2023-04-30T06:21:37;10.80;99.90
23102;DHT22;11720;51.214;22.574;2023-04-30T06:24:04;10.90;99.90
23102;DHT22;11720;51.214;22.574;2023-04-30T06:26:30;11.00;99.90
23102;DHT22;11720;51.214;22.574;2023-04-30T06:28:56;11.20;99.90
23102;DHT22;11720;51.214;22.574;2023-04-30T06:31:22;11.40;99.90
23102;DHT22;11720;51.214;22.574;2023-04-30T06:33:48;11.60;99.90
23102;DHT22;11720;51.214;22.574;2023-04-30T06:36:14;11.90;99.90
23102;DHT22;11720;51.214;22.574;2023-04-30T06:38:40;12.10;99.90
23102;DHT22;11720;51.214;22.574;2023-04-30T06:41:07;12.40;99.90
23102;DHT22;11720;51.214;22.574;2023-04-30T06:43:33;12.60;99.90
23102;DHT22;11720;51.214;22.574;2023-04-30T06:45:59;12.70;99.90
23102;DHT22;11720;51.214;22.574;2023-04-30T06:48:25;12.80;99.90
23102;DHT22;11720;51.214;22.574;2023-04-30T06:50:51;13.00;99.90
23102;DHT22;11720;51.214;22.574;2023-04-30T06:53:16;13.10;99.90
23102;DHT22;11720;51.214;22.574;2023-04-30T06:55:44;13.20;99.90
23102;DHT22;11720;51.214;22.574;2023-04-30T06:58:12;13.00;99.90
23102;DHT22;11720;51.214;22.574;2023-04-30T07:00:38;12.90;99.90
23102;DHT22;11720;51.214;22.574;2023-04-30T07:03:04;13.00;99.90
23102;DHT22;11720;51.214;22.574;2023-04-30T07:05:30;13.10;99.90
23102;DHT22;11720;51.214;22.574;2023-04-30T07:08:00;13.10;99.90
23102;DHT22;11720;51.214;22.574;2023-04-30T07:10:28;13.10;99.90
23102;DHT22;11720;51.214;22.574;2023-04-30T07:12:53;12.90;99.90
23102;DHT22;11720;51.214;22.574;2023-04-30T07:15:19;12.80;99.90
23102;DHT22;11720;51.214;22.574;2023-04-30T07:17:45;12.70;99.90
23102;DHT22;11720;51.214;22.574;2023-04-30T07:20:11;12.50;99.90
23102;DHT22;11720;51.214;22.574;2023-04-30T07:22:39;12.50;99.90
23102;DHT22;11720;51.214;22.574;2023-04-30T07:25:05;12.30;99.90
23102;DHT22;11720;51.214;22.574;2023-04-30T07:27:31;12.40;99.90
23102;DHT22;11720;51.214;22.574;2023-04-30T07:29:57;12.30;99.90
23102;DHT22;11720;51.214;22.574;2023-04-30T07:32:23;12.40;99.90
23102;DHT22;11720;51.214;22.574;2023-04-30T07:34:51;12.30;99.90
23102;DHT22;11720;51.214;22.574;2023-04-30T07:37:18;12.40;99.90
23102;DHT22;11720;51.214;22.574;2023-04-30T07:39:43;12.40;99.90
23102;DHT22;11720;51.214;22.574;2023-04-30T07:42:09;12.30;99.90
23102;DHT22;11720;51.214;22.574;2023-04-30T07:44:34;13.40;99.90
23102;DHT22;11720;51.214;22.574;2023-04-30T07:47:00;12.10;99.90
23102;DHT22;11720;51.214;22.574;2023-04-30T07:49:26;12.00;99.90
23102;DHT22;11720;51.214;22.574;2023-04-30T07:51:52;12.00;99.90
23102;DHT22;11720;51.214;22.574;2023-04-30T07:54:18;12.00;99.90
23102;DHT22;11720;51.214;22.574;2023-04-30T07:56:43;11.90;99.90
23102;DHT22;11720;51.214;22.574;2023-04-30T07:59:09;11.90;99.90
23102;DHT22;11720;51.214;22.574;2023-04-30T08:01:35;11.80;99.90
23102;DHT22;11720;51.214;22.574;2023-04-30T08:04:00;11.80;99.90
23102;DHT22;11720;51.214;22.574;2023-04-30T08:06:26;11.70;99.90
23102;DHT22;11720;51.214;22.574;2023-04-30T08:08:52;11.70;99.90
23102;DHT22;11720;51.214;22.574;2023-04-30T08:11:17;11.60;99.90
23102;DHT22;11720;51.214;22.574;2023-04-30T08:13:44;11.40;99.90
23102;DHT22;11720;51.214;22.574;2023-04-30T08:16:09;11.30;99.90
23102;DHT22;11720;51.214;22.574;2023-04-30T08:18:35;11.20;99.90
23102;DHT22;11720;51.214;22.574;2023-04-30T08:21:03;11.20;99.90
23102;DHT22;11720;51.214;22.574;2023-04-30T08:23:30;11.10;99.90
23102;DHT22;11720;51.214;22.574;2023-04-30T08:25:55;11.00;99.90
23102;DHT22;11720;51.214;22.574;2023-04-30T08:28:21;11.00;99.90
23102;DHT22;11720;51.214;22.574;2023-04-30T08:30:47;10.70;99.90
23102;DHT22;11720;51.214;22.574;2023-04-30T08:33:12;10.40;99.90
23102;DHT22;11720;51.214;22.574;2023-04-30T08:35:38;10.40;99.90
23102;DHT22;11720;51.214;22.574;2023-04-30T08:38:04;10.40;99.90
23102;DHT22;11720;51.214;22.574;2023-04-30T08:40:30;10.30;99.90
23102;DHT22;11720;51.214;22.574;2023-04-30T08:43:06;10.30;99.90
23102;DHT22;11720;51.214;22.574;2023-04-30T08:45:32;10.30;99.90
23102;DHT22;11720;51.214;22.574;2023-04-30T08:47:59;10.30;99.90
23102;DHT22;11720;51.214;22.574;2023-04-30T08:50:26;10.30;99.90
23102;DHT22;11720;51.214;22.574;2023-04-30T08:52:52;10.20;99.90
23102;DHT22;11720;51.214;22.574;2023-04-30T08:55:17;10.30;99.90
23102;DHT22;11720;51.214;22.574;2023-04-30T08:57:43;10.30;99.90
23102;DHT22;11720;51.214;22.574;2023-04-30T09:00:09;10.40;99.90
23102;DHT22;11720;51.214;22.574;2023-04-30T09:02:39;10.30;99.90
23102;DHT22;11720;51.214;22.574;2023-04-30T09:05:13;10.40;99.90
23102;DHT22;11720;51.214;22.574;2023-04-30T09:07:44;10.40;99.90
23102;DHT22;11720;51.214;22.574;2023-04-30T09:10:38;10.30;99.90
23102;DHT22;11720;51.214;22.574;2023-04-30T09:13:10;10.40;99.90
23102;DHT22;11720;51.214;22.574;2023-04-30T09:18:16;10.20;99.90
23102;DHT22;11720;51.214;22.574;2023-04-30T09:20:59;10.60;99.90
23102;DHT22;11720;51.214;22.574;2023-04-30T09:23:26;11.00;99.90
23102;DHT22;11720;51.214;22.574;2023-04-30T09:28:22;10.60;99.90
23102;DHT22;11720;51.214;22.574;2023-04-30T09:30:57;10.40;99.90
23102;DHT22;11720;51.214;22.574;2023-04-30T09:33:44;10.50;99.90
23102;DHT22;11720;51.214;22.574;2023-04-30T09:36:13;10.60;99.90
23102;DHT22;11720;51.214;22.574;2023-04-30T09:38:48;10.40;99.90
23102;DHT22;11720;51.214;22.574;2023-04-30T09:41:41;10.40;99.90
23102;DHT22;11720;51.214;22.574;2023-04-30T09:44:15;10.60;99.90
23102;DHT22;11720;51.214;22.574;2023-04-30T09:47:02;10.40;99.90
23102;DHT22;11720;51.214;22.574;2023-04-30T09:49:27;11.00;99.90
23102;DHT22;11720;51.214;22.574;2023-04-30T09:51:58;10.40;99.90
23102;DHT22;11720;51.214;22.574;2023-04-30T09:54:28;10.60;99.90
23102;DHT22;11720;51.214;22.574;2023-04-30T09:56:55;10.40;99.90
23102;DHT22;11720;51.214;22.574;2023-04-30T09:59:29;10.70;99.90
23102;DHT22;11720;51.214;22.574;2023-04-30T10:02:02;11.10;99.90
23102;DHT22;11720;51.214;22.574;2023-04-30T10:04:33;10.70;99.90
23102;DHT22;11720;51.214;22.574;2023-04-30T10:07:21;10.70;99.90
23102;DHT22;11720;51.214;22.574;2023-04-30T10:10:06;10.60;99.90
23102;DHT22;11720;51.214;22.574;2023-04-30T10:12:42;11.00;99.90
23102;DHT22;11720;51.214;22.574;2023-04-30T10:17:38;10.80;99.90
23102;DHT22;11720;51.214;22.574;2023-04-30T10:20:23;11.20;99.90
23102;DHT22;11720;51.214;22.574;2023-04-30T10:22:53;10.90;99.90
23102;DHT22;11720;51.214;22.574;2023-04-30T10:27:54;11.00;99.90
23102;DHT22;11720;51.214;22.574;2023-04-30T10:36:50;10.80;99.90
23102;DHT22;11720;51.214;22.574;2023-04-30T10:39:36;10.60;99.90
23102;DHT22;11720;51.214;22.574;2023-04-30T10:42:05;10.90;99.90
23102;DHT22;11720;51.214;22.574;2023-04-30T10:44:35;10.90;99.90
23102;DHT22;11720;51.214;22.574;2023-04-30T10:47:07;11.20;99.90
23102;DHT22;11720;51.214;22.574;2023-04-30T10:49:35;11.70;99.90
23102;DHT22;11720;51.214;22.574;2023-04-30T10:52:03;11.70;99.90
23102;DHT22;11720;51.214;22.574;2023-04-30T10:54:38;11.80;99.90
23102;DHT22;11720;51.214;22.574;2023-04-30T10:57:19;11.40;99.90
23102;DHT22;11720;51.214;22.574;2023-04-30T11:06:14;13.00;99.90
23102;DHT22;11720;51.214;22.574;2023-04-30T11:08:44;12.60;99.90
23102;DHT22;11720;51.214;22.574;2023-04-30T11:11:19;12.90;99.90
23102;DHT22;11720;51.214;22.574;2023-04-30T11:13:58;13.10;99.90
23102;DHT22;11720;51.214;22.574;2023-04-30T11:16:33;13.20;99.90
23102;DHT22;11720;51.214;22.574;2023-04-30T11:19:10;13.30;99.90
23102;DHT22;11720;51.214;22.574;2023-04-30T11:25:02;13.10;99.90
23102;DHT22;11720;51.214;22.574;2023-04-30T11:27:43;12.60;99.90
23102;DHT22;11720;51.214;22.574;2023-04-30T11:30:19;14.10;99.90
23102;DHT22;11720;51.214;22.574;2023-04-30T11:32:48;14.20;99.90
23102;DHT22;11720;51.214;22.574;2023-04-30T11:35:17;13.90;99.90
23102;DHT22;11720;51.214;22.574;2023-04-30T11:37:44;13.90;99.90
23102;DHT22;11720;51.214;22.574;2023-04-30T11:40:13;14.00;99.90
23102;DHT22;11720;51.214;22.574;2023-04-30T11:42:41;14.10;99.90
23102;DHT22;11720;51.214;22.574;2023-04-30T11:45:16;14.30;99.90
23102;DHT22;11720;51.214;22.574;2023-04-30T11:48:01;14.70;99.90
23102;DHT22;11720;51.214;22.574;2023-04-30T11:50:32;15.50;99.90
23102;DHT22;11720;51.214;22.574;2023-04-30T11:52:58;15.10;99.90
23102;DHT22;11720;51.214;22.574;2023-04-30T11:55:27;14.90;99.90
23102;DHT22;11720;51.214;22.574;2023-04-30T11:57:55;14.70;99.90
23102;DHT22;11720;51.214;22.574;2023-04-30T12:00:25;14.60;99.90
23102;DHT22;11720;51.214;22.574;2023-04-30T12:02:52;14.50;99.90
23102;DHT22;11720;51.214;22.574;2023-04-30T12:05:26;14.30;99.90
23102;DHT22;11720;51.214;22.574;2023-04-30T12:08:07;14.40;99.90
23102;DHT22;11720;51.214;22.574;2023-04-30T12:10:34;14.40;99.90
23102;DHT22;11720;51.214;22.574;2023-04-30T12:13:01;14.40;99.90
23102;DHT22;11720;51.214;22.574;2023-04-30T12:15:27;14.70;98.70
23102;DHT22;11720;51.214;22.574;2023-04-30T12:18:10;14.20;97.90
23102;DHT22;11720;51.214;22.574;2023-04-30T12:20:38;14.30;98.50
23102;DHT22;11720;51.214;22.574;2023-04-30T12:23:05;14.70;98.10
23102;DHT22;11720;51.214;22.574;2023-04-30T12:25:42;15.20;97.30
23102;DHT22;11720;51.214;22.574;2023-04-30T12:28:09;15.50;94.00
23102;DHT22;11720;51.214;22.574;2023-04-30T12:30:35;15.60;92.80
23102;DHT22;11720;51.214;22.574;2023-04-30T12:33:00;15.50;92.20
23102;DHT22;11720;51.214;22.574;2023-04-30T12:35:29;15.40;92.50
23102;DHT22;11720;51.214;22.574;2023-04-30T12:38:06;15.20;92.10
23102;DHT22;11720;51.214;22.574;2023-04-30T12:40:32;15.00;91.50
23102;DHT22;11720;51.214;22.574;2023-04-30T12:43:05;15.00;91.00
23102;DHT22;11720;51.214;22.574;2023-04-30T12:48:14;15.00;90.50
23102;DHT22;11720;51.214;22.574;2023-04-30T12:50:40;15.00;91.10
23102;DHT22;11720;51.214;22.574;2023-04-30T12:53:06;14.70;91.50
23102;DHT22;11720;51.214;22.574;2023-04-30T12:55:32;14.50;91.50
23102;DHT22;11720;51.214;22.574;2023-04-30T12:58:10;14.40;91.20
23102;DHT22;11720;51.214;22.574;2023-04-30T13:00:49;14.40;91.40
23102;DHT22;11720;51.214;22.574;2023-04-30T13:03:20;14.40;91.60
23102;DHT22;11720;51.214;22.574;2023-04-30T13:05:50;14.50;91.60
23102;DHT22;11720;51.214;22.574;2023-04-30T13:08:18;14.60;90.80
23102;DHT22;11720;51.214;22.574;2023-04-30T13:13:21;15.20;90.10
23102;DHT22;11720;51.214;22.574;2023-04-30T13:15:47;15.00;90.60
23102;DHT22;11720;51.214;22.574;2023-04-30T13:20:42;14.50;87.90
23102;DHT22;11720;51.214;22.574;2023-04-30T13:23:11;14.10;87.90
23102;DHT22;11720;51.214;22.574;2023-04-30T13:25:41;14.10;88.60
23102;DHT22;11720;51.214;22.574;2023-04-30T13:28:08;14.10;91.00
23102;DHT22;11720;51.214;22.574;2023-04-30T13:33:00;15.30;85.10
23102;DHT22;11720;51.214;22.574;2023-04-30T13:35:26;15.80;81.70
23102;DHT22;11720;51.214;22.574;2023-04-30T13:37:52;16.20;79.10
23102;DHT22;11720;51.214;22.574;2023-04-30T13:40:22;16.30;82.80
23102;DHT22;11720;51.214;22.574;2023-04-30T13:42:50;17.00;75.40
23102;DHT22;11720;51.214;22.574;2023-04-30T13:45:16;16.90;77.70
23102;DHT22;11720;51.214;22.574;2023-04-30T13:47:42;17.00;77.50
23102;DHT22;11720;51.214;22.574;2023-04-30T13:50:08;17.00;74.80
23102;DHT22;11720;51.214;22.574;2023-04-30T13:52:34;17.00;73.00
23102;DHT22;11720;51.214;22.574;2023-04-30T13:55:00;17.10;68.70
23102;DHT22;11720;51.214;22.574;2023-04-30T13:57:25;17.40;67.70
23102;DHT22;11720;51.214;22.574;2023-04-30T13:59:54;17.50;66.90
23102;DHT22;11720;51.214;22.574;2023-04-30T14:02:20;17.30;64.80
23102;DHT22;11720;51.214;22.574;2023-04-30T14:04:46;16.80;63.10
23102;DHT22;11720;51.214;22.574;2023-04-30T14:07:11;17.60;65.00
23102;DHT22;11720;51.214;22.574;2023-04-30T14:09:38;17.50;66.70
23102;DHT22;11720;51.214;22.574;2023-04-30T14:12:03;17.80;64.90
23102;DHT22;11720;51.214;22.574;2023-04-30T14:14:29;18.10;62.20
23102;DHT22;11720;51.214;22.574;2023-04-30T14:16:55;18.20;60.60
23102;DHT22;11720;51.214;22.574;2023-04-30T14:19:21;17.80;59.20
23102;DHT22;11720;51.214;22.574;2023-04-30T14:21:47;17.90;59.60
23102;DHT22;11720;51.214;22.574;2023-04-30T14:24:13;17.80;58.70
23102;DHT22;11720;51.214;22.574;2023-04-30T14:26:41;17.90;55.70
23102;DHT22;11720;51.214;22.574;2023-04-30T14:29:07;17.90;55.60
23102;DHT22;11720;51.214;22.574;2023-04-30T14:31:33;17.80;54.40
23102;DHT22;11720;51.214;22.574;2023-04-30T14:33:59;17.50;54.30
23102;DHT22;11720;51.214;22.574;2023-04-30T14:36:24;17.40;54.50
23102;DHT22;11720;51.214;22.574;2023-04-30T14:38:52;17.40;53.40
23102;DHT22;11720;51.214;22.574;2023-04-30T14:41:17;17.10;52.10
23102;DHT22;11720;51.214;22.574;2023-04-30T14:43:43;16.80;51.90
23102;DHT22;11720;51.214;22.574;2023-04-30T14:46:09;16.90;53.60
23102;DHT22;11720;51.214;22.574;2023-04-30T14:48:34;17.20;51.50
23102;DHT22;11720;51.214;22.574;2023-04-30T14:51:00;16.60;51.80
23102;DHT22;11720;51.214;22.574;2023-04-30T14:53:26;16.70;52.50
23102;DHT22;11720;51.214;22.574;2023-04-30T14:55:52;16.40;53.00
23102;DHT22;11720;51.214;22.574;2023-04-30T14:58:17;16.10;53.60
23102;DHT22;11720;51.214;22.574;2023-04-30T15:00:44;16.40;53.90
23102;DHT22;11720;51.214;22.574;2023-04-30T15:03:11;16.30;52.90
23102;DHT22;11720;51.214;22.574;2023-04-30T15:05:37;16.30;52.90
23102;DHT22;11720;51.214;22.574;2023-04-30T15:08:02;16.30;52.90
23102;DHT22;11720;51.214;22.574;2023-04-30T15:10:28;16.20;50.50
23102;DHT22;11720;51.214;22.574;2023-04-30T15:12:54;16.20;48.70
23102;DHT22;11720;51.214;22.574;2023-04-30T15:15:19;16.60;48.70
23102;DHT22;11720;51.214;22.574;2023-04-30T15:17:50;16.40;47.60
23102;DHT22;11720;51.214;22.574;2023-04-30T15:20:16;16.50;49.00
23102;DHT22;11720;51.214;22.574;2023-04-30T15:22:41;16.60;46.60
23102;DHT22;11720;51.214;22.574;2023-04-30T15:25:07;16.70;47.10
23102;DHT22;11720;51.214;22.574;2023-04-30T15:27:33;16.40;46.10
23102;DHT22;11720;51.214;22.574;2023-04-30T15:29:59;15.90;45.90
23102;DHT22;11720;51.214;22.574;2023-04-30T15:32:25;15.90;46.50
23102;DHT22;11720;51.214;22.574;2023-04-30T15:34:50;16.10;47.20
23102;DHT22;11720;51.214;22.574;2023-04-30T15:37:16;16.10;46.60
23102;DHT22;11720;51.214;22.574;2023-04-30T15:39:42;16.00;47.30
23102;DHT22;11720;51.214;22.574;2023-04-30T15:42:07;16.10;46.00
23102;DHT22;11720;51.214;22.574;2023-04-30T15:44:33;16.00;46.20
23102;DHT22;11720;51.214;22.574;2023-04-30T15:47:00;16.20;45.00
23102;DHT22;11720;51.214;22.574;2023-04-30T15:49:26;16.50;45.50
23102;DHT22;11720;51.214;22.574;2023-04-30T15:51:51;16.80;46.40
23102;DHT22;11720;51.214;22.574;2023-04-30T15:54:17;16.50;45.30
23102;DHT22;11720;51.214;22.574;2023-04-30T15:56:43;16.20;46.20
23102;DHT22;11720;51.214;22.574;2023-04-30T15:59:08;16.10;46.10
23102;DHT22;11720;51.214;22.574;2023-04-30T16:01:34;16.20;46.30
23102;DHT22;11720;51.214;22.574;2023-04-30T16:04:00;15.90;46.00
23102;DHT22;11720;51.214;22.574;2023-04-30T16:06:27;16.00;47.10
23102;DHT22;11720;51.214;22.574;2023-04-30T16:08:54;16.00;47.00
23102;DHT22;11720;51.214;22.574;2023-04-30T16:11:20;16.00;47.30
23102;DHT22;11720;51.214;22.574;2023-04-30T16:13:48;15.60;46.40
23102;DHT22;11720;51.214;22.574;2023-04-30T16:16:14;15.10;46.50
23102;DHT22;11720;51.214;22.574;2023-04-30T16:18:40;14.70;45.60
23102;DHT22;11720;51.214;22.574;2023-04-30T16:21:06;14.50;46.20
23102;DHT22;11720;51.214;22.574;2023-04-30T16:23:34;14.40;47.00